Time;durP1;ratioP1;P1;durP2;ratioP2;P2;SDS_P1;SDS_P2;PMS_P1;PMS_P2;Temp;Humidity;BMP_temperature;BMP_pressure;BME280_temperature;BME280_humidity;BME280_pressure;Samples;Min_cycle;Max_cycle;Signal;HPM_P1;HPM_P2
2024/01/18 00:00:03;;;;;;;58.47;23.67;;;;;;;;;;5010746;28;20033;-68
2024/01/18 00:02:28;;;;;;;58.03;23.48;;;;;;;;;;5011696;28;20385;-68
2024/01/18 00:04:53;;;;;;;59.35;24.95;;;;;;;;;;5009275;28;20512;-68
2024/01/18 00:07:19;;;;;;;62.33;24.67;;;;;;;;;;5003156;28;20145;-68
2024/01/18 00:09:44;;;;;;;61.00;23.55;;;;;;;;;;5006732;28;20398;-68
2024/01/18 00:12:10;;;;;;;62.05;23.30;;;;;;;;;;5009164;28;20026;-68
2024/01/18 00:14:35;;;;;;;56.88;23.10;;;;;;;;;;5011406;28;20022;-68
2024/01/18 00:17:00;;;;;;;65.88;24.02;;;;;;;;;;5011765;28;20025;-68
2024/01/18 00:19:26;;;;;;;59.33;23.95;;;;;;;;;;5010348;28;20520;-68
2024/01/18 00:21:51;;;;;;;64.32;25.20;;;;;;;;;;5004578;28;20052;-68
2024/01/18 00:24:16;;;;;;;59.25;24.58;;;;;;;;;;5007835;28;20041;-68
2024/01/18 00:26:41;;;;;;;62.05;23.98;;;;;;;;;;5011698;28;20486;-68
2024/01/18 00:29:06;;;;;;;61.05;23.77;;;;;;;;;;5011393;28;20112;-68
2024/01/18 00:31:32;;;;;;;70.18;24.13;;;;;;;;;;5008421;28;20026;-68
2024/01/18 00:33:58;;;;;;;61.75;22.73;;;;;;;;;;5011687;28;20022;-68
2024/01/18 00:36:24;;;;;;;60.65;23.92;;;;;;;;;;5010531;28;20025;-68
2024/01/18 00:38:49;;;;;;;59.83;23.98;;;;;;;;;;5012148;28;20076;-68
2024/01/18 00:41:14;;;;;;;53.28;24.63;;;;;;;;;;5010859;28;20084;-68
2024/01/18 00:43:39;;;;;;;58.08;24.33;;;;;;;;;;5011537;28;20046;-68
2024/01/18 00:46:05;;;;;;;58.03;23.92;;;;;;;;;;5011164;28;20040;-68
2024/01/18 00:48:30;;;;;;;59.38;23.17;;;;;;;;;;5011260;28;20056;-68
2024/01/18 00:50:56;;;;;;;64.50;24.25;;;;;;;;;;5010945;28;20018;-68
2024/01/18 00:53:21;;;;;;;59.83;22.88;;;;;;;;;;5008878;28;20050;-68
2024/01/18 00:55:46;;;;;;;56.33;24.58;;;;;;;;;;5009657;28;20093;-68
2024/01/18 00:58:13;;;;;;;54.95;23.40;;;;;;;;;;5010999;28;20022;-68
2024/01/18 01:00:38;;;;;;;57.67;22.02;;;;;;;;;;5001031;28;20064;-68
2024/01/18 01:03:03;;;;;;;57.05;24.25;;;;;;;;;;5011271;28;20026;-68
2024/01/18 01:05:28;;;;;;;64.07;22.52;;;;;;;;;;5010422;28;20041;-68
2024/01/18 01:07:53;;;;;;;77.90;23.95;;;;;;;;;;5011032;28;20030;-68
2024/01/18 01:10:19;;;;;;;61.50;23.55;;;;;;;;;;5007729;28;20072;-68
2024/01/18 01:12:44;;;;;;;65.83;23.27;;;;;;;;;;5007114;28;20049;-68
2024/01/18 01:15:09;;;;;;;54.08;21.88;;;;;;;;;;5008115;28;20342;-68
2024/01/18 01:17:34;;;;;;;58.85;22.70;;;;;;;;;;5010742;28;20073;-68
2024/01/18 01:19:59;;;;;;;62.40;22.02;;;;;;;;;;5010532;28;20048;-68
2024/01/18 01:22:25;;;;;;;60.22;23.00;;;;;;;;;;5010381;28;20022;-68
2024/01/18 01:24:50;;;;;;;63.17;21.88;;;;;;;;;;5010770;28;20433;-68
2024/01/18 01:27:15;;;;;;;54.50;20.30;;;;;;;;;;5007485;28;20130;-68
2024/01/18 01:29:40;;;;;;;45.60;20.50;;;;;;;;;;5010840;28;20473;-68
2024/01/18 01:32:05;;;;;;;59.60;21.88;;;;;;;;;;5010053;28;20122;-68
2024/01/18 01:34:30;;;;;;;46.35;20.42;;;;;;;;;;5002490;28;20029;-68
2024/01/18 01:36:56;;;;;;;46.72;20.50;;;;;;;;;;4993408;28;20398;-68
2024/01/18 01:39:21;;;;;;;58.08;22.98;;;;;;;;;;4996948;28;20058;-68
2024/01/18 01:41:46;;;;;;;57.80;21.40;;;;;;;;;;4997824;28;20052;-68
2024/01/18 01:44:11;;;;;;;58.00;22.38;;;;;;;;;;4998606;28;20495;-68
2024/01/18 01:46:36;;;;;;;51.80;22.00;;;;;;;;;;5005950;28;20385;-68
2024/01/18 01:49:03;;;;;;;55.93;21.00;;;;;;;;;;4993464;28;20038;-68
2024/01/18 01:51:34;;;;;;;68.43;23.40;;;;;;;;;;5001704;28;20340;-68
2024/01/18 01:54:00;;;;;;;56.03;20.23;;;;;;;;;;4995872;28;20030;-68
2024/01/18 01:56:26;;;;;;;55.75;21.17;;;;;;;;;;5000338;28;20065;-68
2024/01/18 01:58:51;;;;;;;49.35;21.27;;;;;;;;;;4997297;28;20053;-68
2024/01/18 02:01:16;;;;;;;62.35;23.15;;;;;;;;;;5002616;28;20033;-68
2024/01/18 02:03:42;;;;;;;58.30;22.10;;;;;;;;;;5007655;28;20026;-68
2024/01/18 02:06:08;;;;;;;64.22;22.38;;;;;;;;;;5008628;28;20091;-68
2024/01/18 02:08:33;;;;;;;59.25;23.67;;;;;;;;;;4998033;28;20736;-68
2024/01/18 02:10:59;;;;;;;65.10;20.85;;;;;;;;;;4995684;28;20358;-68
2024/01/18 02:13:24;;;;;;;48.97;21.02;;;;;;;;;;4992787;28;20080;-68
2024/01/18 02:15:50;;;;;;;63.88;22.10;;;;;;;;;;4996528;28;20253;-69
2024/01/18 02:18:15;;;;;;;55.75;20.00;;;;;;;;;;5007053;28;20017;-68
2024/01/18 02:20:40;;;;;;;53.28;21.50;;;;;;;;;;5005782;28;20030;-68
2024/01/18 02:23:06;;;;;;;59.15;21.52;;;;;;;;;;4992050;28;20026;-68
2024/01/18 02:25:31;;;;;;;56.92;21.60;;;;;;;;;;4994428;28;20024;-68
2024/01/18 02:27:57;;;;;;;62.03;24.90;;;;;;;;;;5001234;28;20093;-68
2024/01/18 02:30:23;;;;;;;58.00;23.42;;;;;;;;;;4999072;28;20498;-68
2024/01/18 02:32:48;;;;;;;56.45;21.58;;;;;;;;;;4998598;28;20022;-69
2024/01/18 02:35:14;;;;;;;54.92;21.45;;;;;;;;;;5004306;28;20022;-68
2024/01/18 02:37:39;;;;;;;60.83;21.17;;;;;;;;;;5006235;28;20022;-68
2024/01/18 02:40:05;;;;;;;59.65;22.67;;;;;;;;;;5006202;28;20049;-68
2024/01/18 02:42:30;;;;;;;57.72;22.10;;;;;;;;;;4997656;28;20034;-68
2024/01/18 02:44:57;;;;;;;50.00;21.85;;;;;;;;;;4994940;28;20030;-68
2024/01/18 02:47:23;;;;;;;53.33;22.17;;;;;;;;;;4999074;28;20049;-68
2024/01/18 02:49:49;;;;;;;48.53;21.45;;;;;;;;;;4997373;28;20114;-68
2024/01/18 02:52:14;;;;;;;59.28;22.40;;;;;;;;;;4990533;28;20103;-68
2024/01/18 02:54:39;;;;;;;48.63;21.27;;;;;;;;;;4991770;28;20068;-69
2024/01/18 02:57:04;;;;;;;50.88;21.27;;;;;;;;;;4996988;28;20099;-68
2024/01/18 02:59:29;;;;;;;60.45;21.75;;;;;;;;;;5001932;28;20068;-68
2024/01/18 03:01:55;;;;;;;55.47;23.95;;;;;;;;;;5007640;28;20029;-68
2024/01/18 03:04:20;;;;;;;48.83;21.35;;;;;;;;;;4997789;28;20045;-68
2024/01/18 03:06:45;;;;;;;63.28;22.92;;;;;;;;;;4996291;28;20459;-68
2024/01/18 03:09:12;;;;;;;56.35;22.30;;;;;;;;;;4996975;28;20378;-68
2024/01/18 03:11:37;;;;;;;51.55;21.67;;;;;;;;;;4995212;28;20023;-68
2024/01/18 03:14:02;;;;;;;68.03;23.20;;;;;;;;;;5001989;28;20026;-69
2024/01/18 03:16:28;;;;;;;56.88;21.27;;;;;;;;;;4997875;28;20081;-68
2024/01/18 03:18:53;;;;;;;58.35;21.27;;;;;;;;;;5007330;28;20112;-68
2024/01/18 03:21:18;;;;;;;60.17;23.50;;;;;;;;;;4993340;28;20034;-68
2024/01/18 03:23:43;;;;;;;50.30;21.52;;;;;;;;;;4996793;28;20556;-68
2024/01/18 03:26:09;;;;;;;57.22;21.15;;;;;;;;;;5008923;28;20026;-68
2024/01/18 03:28:34;;;;;;;55.53;20.80;;;;;;;;;;4998896;28;20050;-68
2024/01/18 03:30:59;;;;;;;63.78;22.88;;;;;;;;;;4998443;28;20104;-68
2024/01/18 03:33:24;;;;;;;46.97;20.38;;;;;;;;;;4992855;28;20093;-68
2024/01/18 03:35:50;;;;;;;62.88;21.17;;;;;;;;;;4997751;28;20389;-68
2024/01/18 03:38:15;;;;;;;62.80;22.15;;;;;;;;;;4997250;28;20046;-68
2024/01/18 03:40:40;;;;;;;54.45;22.13;;;;;;;;;;5010771;28;20022;-68
2024/01/18 03:43:05;;;;;;;52.03;22.42;;;;;;;;;;4999851;28;20493;-68
2024/01/18 03:45:31;;;;;;;51.67;23.25;;;;;;;;;;5001078;28;20080;-68
2024/01/18 03:47:56;;;;;;;59.83;22.70;;;;;;;;;;5000854;28;20056;-68
2024/01/18 03:50:21;;;;;;;55.72;22.98;;;;;;;;;;4997792;28;20018;-68
2024/01/18 03:52:47;;;;;;;58.35;23.98;;;;;;;;;;5010750;28;20034;-68
2024/01/18 03:55:12;;;;;;;56.95;24.15;;;;;;;;;;5002704;28;20683;-68
2024/01/18 03:57:37;;;;;;;60.08;23.33;;;;;;;;;;5007331;28;20133;-68
2024/01/18 04:00:03;;;;;;;53.60;22.92;;;;;;;;;;5006815;28;20037;-68
2024/01/18 04:02:28;;;;;;;56.58;24.23;;;;;;;;;;5004368;28;20500;-67
2024/01/18 04:04:54;;;;;;;53.08;22.02;;;;;;;;;;5003395;28;20038;-68
2024/01/18 04:07:19;;;;;;;62.47;25.70;;;;;;;;;;5002561;28;20070;-67
2024/01/18 04:09:45;;;;;;;61.95;23.92;;;;;;;;;;4999080;28;20034;-67
2024/01/18 04:12:10;;;;;;;57.53;25.88;;;;;;;;;;5004170;28;20022;-68
2024/01/18 04:14:35;;;;;;;64.38;23.30;;;;;;;;;;5003170;28;20473;-68
2024/01/18 04:17:00;;;;;;;50.42;23.52;;;;;;;;;;5003188;28;20084;-68
2024/01/18 04:19:25;;;;;;;57.10;22.30;;;;;;;;;;4999838;28;20133;-68
2024/01/18 04:21:51;;;;;;;55.55;23.48;;;;;;;;;;4993838;28;20265;-67
2024/01/18 04:24:17;;;;;;;66.90;24.25;;;;;;;;;;4992713;28;20465;-68
2024/01/18 04:26:42;;;;;;;58.03;22.70;;;;;;;;;;4998327;28;20026;-68
2024/01/18 04:29:07;;;;;;;72.57;25.55;;;;;;;;;;4996379;28;20022;-68
2024/01/18 04:31:33;;;;;;;52.15;22.30;;;;;;;;;;5002703;28;20030;-68
2024/01/18 04:33:59;;;;;;;63.17;25.50;;;;;;;;;;5007638;28;20018;-68
2024/01/18 04:36:24;;;;;;;62.65;23.35;;;;;;;;;;4997291;28;20037;-68
2024/01/18 04:38:49;;;;;;;60.10;24.45;;;;;;;;;;5005988;28;20041;-68
2024/01/18 04:41:15;;;;;;;61.50;25.55;;;;;;;;;;4996934;28;20485;-67
2024/01/18 04:43:40;;;;;;;54.97;23.05;;;;;;;;;;4998833;28;20022;-67
2024/01/18 04:46:05;;;;;;;59.45;21.85;;;;;;;;;;5004785;28;20072;-68
2024/01/18 04:48:31;;;;;;;58.17;25.48;;;;;;;;;;4998492;28;20059;-67
2024/01/18 04:50:57;;;;;;;60.88;25.42;;;;;;;;;;4999206;28;20042;-68
2024/01/18 04:53:22;;;;;;;68.13;24.20;;;;;;;;;;4996344;28;20470;-68
2024/01/18 04:55:47;;;;;;;58.53;25.92;;;;;;;;;;5003831;28;20032;-67
2024/01/18 04:58:12;;;;;;;58.97;24.20;;;;;;;;;;4998028;28;20022;-68
2024/01/18 05:00:38;;;;;;;60.35;28.15;;;;;;;;;;5000166;28;20140;-68
2024/01/18 05:03:03;;;;;;;58.55;25.05;;;;;;;;;;4997459;28;20049;-67
2024/01/18 05:05:28;;;;;;;59.97;24.55;;;;;;;;;;5002153;28;20022;-68
2024/01/18 05:07:54;;;;;;;60.17;24.65;;;;;;;;;;4997252;28;20026;-67
2024/01/18 05:10:19;;;;;;;64.05;27.38;;;;;;;;;;4999764;28;20025;-67
2024/01/18 05:12:46;;;;;;;57.08;24.77;;;;;;;;;;4996739;28;20027;-68
2024/01/18 05:15:11;;;;;;;66.70;24.80;;;;;;;;;;4999900;28;20029;-68
2024/01/18 05:17:39;;;;;;;60.50;25.45;;;;;;;;;;4999143;28;20022;-67
2024/01/18 05:20:06;;;;;;;65.20;25.98;;;;;;;;;;4998754;28;20045;-67
2024/01/18 05:22:32;;;;;;;59.92;24.58;;;;;;;;;;5000259;28;20026;-68
2024/01/18 05:25:00;;;;;;;56.60;23.67;;;;;;;;;;4999666;28;20027;-68
2024/01/18 05:27:27;;;;;;;61.05;23.05;;;;;;;;;;4999181;28;20019;-67
2024/01/18 05:29:53;;;;;;;66.55;25.80;;;;;;;;;;5003090;28;20477;-67
2024/01/18 05:32:20;;;;;;;63.47;25.52;;;;;;;;;;4998292;28;20057;-67
2024/01/18 05:34:45;;;;;;;62.50;25.35;;;;;;;;;;5003948;28;20022;-67
2024/01/18 05:37:10;;;;;;;62.47;25.73;;;;;;;;;;4993078;28;20026;-68
2024/01/18 05:39:35;;;;;;;72.55;24.67;;;;;;;;;;4991763;28;20530;-67
2024/01/18 05:42:02;;;;;;;66.50;26.85;;;;;;;;;;4996903;28;20017;-68
2024/01/18 05:44:28;;;;;;;70.85;26.45;;;;;;;;;;5003374;28;20018;-68
2024/01/18 05:46:53;;;;;;;67.10;25.73;;;;;;;;;;4991353;28;20026;-68
2024/01/18 05:49:18;;;;;;;65.68;29.15;;;;;;;;;;4991749;28;20504;-68
2024/01/18 05:51:44;;;;;;;55.40;26.05;;;;;;;;;;4995565;28;20485;-68
2024/01/18 05:54:09;;;;;;;66.85;24.98;;;;;;;;;;4995620;28;20656;-68
2024/01/18 05:56:34;;;;;;;63.40;24.67;;;;;;;;;;4991790;28;20025;-68
2024/01/18 05:58:59;;;;;;;56.17;24.27;;;;;;;;;;5006349;28;20034;-68
2024/01/18 06:01:24;;;;;;;59.75;26.25;;;;;;;;;;5009125;28;20036;-68
2024/01/18 06:03:49;;;;;;;70.30;28.45;;;;;;;;;;4997728;28;20038;-68
2024/01/18 06:06:15;;;;;;;74.90;28.80;;;;;;;;;;4996167;28;20029;-68
2024/01/18 06:08:40;;;;;;;58.88;26.42;;;;;;;;;;5000524;28;20097;-68
2024/01/18 06:11:06;;;;;;;60.90;26.02;;;;;;;;;;4993614;28;20018;-68
2024/01/18 06:13:31;;;;;;;68.28;27.48;;;;;;;;;;4999785;28;20079;-68
2024/01/18 06:15:56;;;;;;;61.03;26.33;;;;;;;;;;4995957;28;20034;-68
2024/01/18 06:18:21;;;;;;;64.82;25.75;;;;;;;;;;4995048;28;20444;-68
2024/01/18 06:20:47;;;;;;;64.35;26.58;;;;;;;;;;4992435;28;20057;-68
2024/01/18 06:23:13;;;;;;;68.53;26.13;;;;;;;;;;5005668;28;20027;-68
2024/01/18 06:25:38;;;;;;;67.88;27.70;;;;;;;;;;4995282;28;20057;-68
2024/01/18 06:28:04;;;;;;;70.90;29.88;;;;;;;;;;5001362;28;20038;-68
2024/01/18 06:30:29;;;;;;;67.32;29.13;;;;;;;;;;5001674;28;20023;-68
2024/01/18 06:32:54;;;;;;;62.30;27.17;;;;;;;;;;5006764;28;20075;-68
2024/01/18 06:35:19;;;;;;;66.38;27.52;;;;;;;;;;5005129;28;20018;-68
2024/01/18 06:37:45;;;;;;;66.55;28.45;;;;;;;;;;5004784;28;20517;-68
2024/01/18 06:40:11;;;;;;;70.70;29.63;;;;;;;;;;5000389;28;20037;-68
2024/01/18 06:42:36;;;;;;;71.40;29.85;;;;;;;;;;5008077;28;20077;-68
2024/01/18 06:45:02;;;;;;;73.18;29.17;;;;;;;;;;5004699;28;20526;-68
2024/01/18 06:47:27;;;;;;;69.35;27.95;;;;;;;;;;5002478;28;20030;-69
2024/01/18 06:49:52;;;;;;;72.00;26.83;;;;;;;;;;5002182;28;20720;-68
2024/01/18 06:52:18;;;;;;;72.75;29.83;;;;;;;;;;4999804;28;20033;-68
2024/01/18 06:54:43;;;;;;;71.95;29.00;;;;;;;;;;4992219;28;20034;-68
2024/01/18 06:57:09;;;;;;;66.70;30.65;;;;;;;;;;4997281;28;20176;-68
2024/01/18 06:59:35;;;;;;;68.07;28.25;;;;;;;;;;4995800;28;20413;-68
2024/01/18 07:02:01;;;;;;;65.85;27.00;;;;;;;;;;5000848;28;20025;-68
2024/01/18 07:04:26;;;;;;;78.22;28.90;;;;;;;;;;5001417;28;20501;-68
2024/01/18 07:06:51;;;;;;;64.85;26.23;;;;;;;;;;5000449;28;20109;-68
2024/01/18 07:09:16;;;;;;;66.60;27.52;;;;;;;;;;5004433;28;20476;-68
2024/01/18 07:11:41;;;;;;;64.50;24.52;;;;;;;;;;5008899;28;20018;-68
2024/01/18 07:14:06;;;;;;;66.57;26.00;;;;;;;;;;4996412;28;20029;-68
2024/01/18 07:16:32;;;;;;;51.05;24.98;;;;;;;;;;4999632;28;20037;-68
2024/01/18 07:18:57;;;;;;;66.63;25.75;;;;;;;;;;5004480;28;20054;-68
2024/01/18 07:21:22;;;;;;;63.15;26.95;;;;;;;;;;5002265;28;20080;-68
2024/01/18 07:23:48;;;;;;;68.00;26.80;;;;;;;;;;5008090;28;20401;-68
2024/01/18 07:26:13;;;;;;;73.68;27.75;;;;;;;;;;5003144;28;20126;-68
2024/01/18 07:28:38;;;;;;;83.25;27.25;;;;;;;;;;5000671;28;20188;-69
2024/01/18 07:31:03;;;;;;;61.67;25.45;;;;;;;;;;5007250;28;20026;-68
2024/01/18 07:33:28;;;;;;;63.38;26.27;;;;;;;;;;5002981;28;20018;-68
2024/01/18 07:35:54;;;;;;;71.32;27.67;;;;;;;;;;5003857;28;20022;-68
2024/01/18 07:38:19;;;;;;;64.63;27.48;;;;;;;;;;5003683;28;20054;-68
2024/01/18 07:40:44;;;;;;;67.50;25.45;;;;;;;;;;5003894;28;20028;-68
2024/01/18 07:43:09;;;;;;;63.67;26.40;;;;;;;;;;4999793;28;20092;-68
2024/01/18 07:45:34;;;;;;;76.88;27.60;;;;;;;;;;5006314;28;20025;-67
2024/01/18 07:48:00;;;;;;;68.87;26.83;;;;;;;;;;5005415;28;20022;-66
2024/01/18 07:50:25;;;;;;;70.35;27.38;;;;;;;;;;5006211;28;20280;-66
2024/01/18 07:52:51;;;;;;;64.28;25.20;;;;;;;;;;5003463;28;20018;-66
2024/01/18 07:55:17;;;;;;;67.18;26.08;;;;;;;;;;4996591;28;20022;-66
2024/01/18 07:57:42;;;;;;;66.28;27.27;;;;;;;;;;5004577;28;20393;-69
2024/01/18 08:00:08;;;;;;;60.25;26.15;;;;;;;;;;5005349;28;20504;-67
2024/01/18 08:02:33;;;;;;;66.35;26.65;;;;;;;;;;5004674;28;20025;-67
2024/01/18 08:04:58;;;;;;;80.22;27.38;;;;;;;;;;5004481;28;20519;-67
2024/01/18 08:07:24;;;;;;;68.18;27.52;;;;;;;;;;5001671;28;20097;-67
2024/01/18 08:09:49;;;;;;;71.45;30.13;;;;;;;;;;4997647;28;20054;-67
2024/01/18 08:12:14;;;;;;;70.53;29.58;;;;;;;;;;5004590;28;20017;-67
2024/01/18 08:14:43;;;;;;;73.72;27.95;;;;;;;;;;4998614;28;20032;-67
2024/01/18 08:17:08;;;;;;;71.82;30.63;;;;;;;;;;5000876;28;20014;-67
2024/01/18 08:19:33;;;;;;;72.28;31.23;;;;;;;;;;5009971;28;20088;-67
2024/01/18 08:21:59;;;;;;;71.53;26.73;;;;;;;;;;5008787;28;20099;-67
2024/01/18 08:24:24;;;;;;;66.07;27.27;;;;;;;;;;4999193;28;20019;-67
2024/01/18 08:26:49;;;;;;;62.33;27.80;;;;;;;;;;5001702;28;20109;-67
2024/01/18 08:29:14;;;;;;;73.88;29.77;;;;;;;;;;5001480;28;20026;-67
2024/01/18 08:31:40;;;;;;;67.60;28.17;;;;;;;;;;4999998;28;20312;-67
2024/01/18 08:34:07;;;;;;;63.20;26.60;;;;;;;;;;4995801;28;20022;-67
2024/01/18 08:36:32;;;;;;;71.28;26.38;;;;;;;;;;5004780;28;20075;-67
2024/01/18 08:38:57;;;;;;;91.43;30.35;;;;;;;;;;5009194;28;20022;-67
2024/01/18 08:41:23;;;;;;;67.53;28.00;;;;;;;;;;5004420;28;20497;-67
2024/01/18 08:43:48;;;;;;;69.95;28.60;;;;;;;;;;5006041;28;20051;-67
2024/01/18 08:46:14;;;;;;;61.28;27.88;;;;;;;;;;4995443;28;20023;-67
2024/01/18 08:48:40;;;;;;;80.75;29.67;;;;;;;;;;5000315;28;20021;-67
2024/01/18 08:51:12;;;;;;;68.05;29.33;;;;;;;;;;5002927;28;20038;-67
2024/01/18 08:53:37;;;;;;;82.80;31.52;;;;;;;;;;4999516;28;20013;-67
2024/01/18 08:56:03;;;;;;;80.10;30.65;;;;;;;;;;4995224;28;20018;-67
2024/01/18 08:58:28;;;;;;;73.80;28.65;;;;;;;;;;4996931;28;20534;-67
2024/01/18 09:00:54;;;;;;;68.40;28.63;;;;;;;;;;5005207;28;20113;-67
2024/01/18 09:03:19;;;;;;;80.88;30.23;;;;;;;;;;5000908;28;20014;-67
2024/01/18 09:05:44;;;;;;;74.30;31.05;;;;;;;;;;5002294;28;20026;-68
2024/01/18 09:08:10;;;;;;;72.95;32.63;;;;;;;;;;5000591;28;20478;-68
2024/01/18 09:10:35;;;;;;;77.18;31.52;;;;;;;;;;5002814;28;20076;-69
2024/01/18 09:13:00;;;;;;;59.63;28.20;;;;;;;;;;5001319;28;20022;-68
2024/01/18 09:15:26;;;;;;;55.85;26.63;;;;;;;;;;5002677;28;20046;-68
2024/01/18 09:17:51;;;;;;;66.95;24.77;;;;;;;;;;4995180;28;20058;-68
2024/01/18 09:20:16;;;;;;;57.97;26.00;;;;;;;;;;4999483;28;20032;-68
2024/01/18 09:22:42;;;;;;;65.25;26.40;;;;;;;;;;5004080;28;20044;-68
2024/01/18 09:25:07;;;;;;;71.30;27.43;;;;;;;;;;5001116;28;20084;-68
2024/01/18 09:27:32;;;;;;;59.33;27.58;;;;;;;;;;5001037;28;20288;-68
2024/01/18 09:29:58;;;;;;;58.78;27.52;;;;;;;;;;5008493;28;20070;-68
2024/01/18 09:32:25;;;;;;;62.57;27.00;;;;;;;;;;5001194;28;20104;-68
2024/01/18 09:34:50;;;;;;;61.22;27.10;;;;;;;;;;4998218;28;20244;-68
2024/01/18 09:37:15;;;;;;;62.60;29.00;;;;;;;;;;4997727;28;20033;-68
2024/01/18 09:39:41;;;;;;;54.43;26.50;;;;;;;;;;5007332;28;20343;-68
2024/01/18 09:42:10;;;;;;;54.30;27.08;;;;;;;;;;5000861;28;20265;-68
2024/01/18 09:44:37;;;;;;;67.57;26.92;;;;;;;;;;5003844;28;20480;-68
2024/01/18 09:47:03;;;;;;;52.80;26.23;;;;;;;;;;5003671;28;20079;-68
2024/01/18 09:49:31;;;;;;;57.28;27.35;;;;;;;;;;4997098;28;20019;-68
2024/01/18 09:51:58;;;;;;;55.55;26.40;;;;;;;;;;5006182;28;20053;-68
2024/01/18 09:54:23;;;;;;;58.00;28.15;;;;;;;;;;4997386;28;20022;-68
2024/01/18 09:56:51;;;;;;;57.30;26.67;;;;;;;;;;5006004;28;20053;-70
2024/01/18 09:59:18;;;;;;;60.05;25.55;;;;;;;;;;5000853;28;20046;-69
2024/01/18 10:01:43;;;;;;;54.40;27.92;;;;;;;;;;5007169;28;20026;-69
2024/01/18 10:04:12;;;;;;;52.45;26.27;;;;;;;;;;5001407;28;20076;-69
2024/01/18 10:06:38;;;;;;;59.15;26.98;;;;;;;;;;4996087;28;20028;-69
2024/01/18 10:09:05;;;;;;;48.67;23.98;;;;;;;;;;4994386;28;20089;-69
2024/01/18 10:11:30;;;;;;;47.83;24.23;;;;;;;;;;5001865;28;20018;-69
2024/01/18 10:13:56;;;;;;;58.80;25.77;;;;;;;;;;5000373;28;20430;-69
2024/01/18 10:16:37;;;;;;;55.08;25.67;;;;;;;;;;4999337;28;20605;-69
2024/01/18 10:19:04;;;;;;;55.72;26.20;;;;;;;;;;4994364;28;20022;-69
2024/01/18 10:21:29;;;;;;;51.38;25.42;;;;;;;;;;5001652;28;20478;-69
2024/01/18 10:23:55;;;;;;;54.95;25.35;;;;;;;;;;5005769;28;20036;-69
2024/01/18 10:26:22;;;;;;;52.80;24.75;;;;;;;;;;4999350;28;20462;-69
2024/01/18 10:28:47;;;;;;;56.33;25.67;;;;;;;;;;4998000;28;20102;-69
2024/01/18 10:31:12;;;;;;;55.25;25.42;;;;;;;;;;5004289;28;20105;-69
2024/01/18 10:33:37;;;;;;;52.92;26.95;;;;;;;;;;5005093;28;20026;-69
2024/01/18 10:36:03;;;;;;;56.35;24.55;;;;;;;;;;4999025;28;20330;-69
2024/01/18 10:38:32;;;;;;;49.53;25.17;;;;;;;;;;5002815;28;20023;-69
2024/01/18 10:40:58;;;;;;;50.40;25.75;;;;;;;;;;5005599;28;20024;-69
2024/01/18 10:43:27;;;;;;;52.88;26.85;;;;;;;;;;5004766;28;20029;-69
2024/01/18 10:45:53;;;;;;;55.20;27.65;;;;;;;;;;4995576;28;20069;-69
2024/01/18 10:48:18;;;;;;;53.90;25.88;;;;;;;;;;4995507;28;20034;-69
2024/01/18 10:50:45;;;;;;;54.83;26.20;;;;;;;;;;4999780;28;20032;-69
2024/01/18 10:53:10;;;;;;;53.33;24.60;;;;;;;;;;5001602;28;20498;-69
2024/01/18 10:55:35;;;;;;;53.35;25.55;;;;;;;;;;5005216;28;20014;-69
2024/01/18 10:58:01;;;;;;;54.28;25.27;;;;;;;;;;4999378;28;20038;-69
2024/01/18 11:00:26;;;;;;;65.25;28.05;;;;;;;;;;5006252;28;20033;-69
2024/01/18 11:02:51;;;;;;;53.42;25.30;;;;;;;;;;5002406;28;20022;-69
2024/01/18 11:05:20;;;;;;;54.17;24.83;;;;;;;;;;5005108;28;20404;-69
2024/01/18 11:07:45;;;;;;;57.97;28.05;;;;;;;;;;5005081;28;20029;-69
2024/01/18 11:10:11;;;;;;;50.92;25.92;;;;;;;;;;5003724;28;20389;-69
2024/01/18 11:12:38;;;;;;;64.10;28.02;;;;;;;;;;4996338;28;20014;-69
2024/01/18 11:15:04;;;;;;;55.72;26.38;;;;;;;;;;5005213;28;20013;-69
2024/01/18 11:17:29;;;;;;;55.80;28.10;;;;;;;;;;5002234;28;20022;-69
2024/01/18 11:19:59;;;;;;;59.20;27.70;;;;;;;;;;4998452;28;20109;-69
2024/01/18 11:22:25;;;;;;;61.17;26.20;;;;;;;;;;5002556;28;20261;-69
2024/01/18 11:24:51;;;;;;;56.13;27.05;;;;;;;;;;5004717;28;20030;-69
2024/01/18 11:27:17;;;;;;;61.78;26.38;;;;;;;;;;5000019;28;20469;-69
2024/01/18 11:29:43;;;;;;;50.97;25.95;;;;;;;;;;4998129;28;20257;-70
2024/01/18 11:32:11;;;;;;;54.03;25.90;;;;;;;;;;5004694;28;20018;-70
2024/01/18 11:34:37;;;;;;;59.65;28.55;;;;;;;;;;5001972;28;20472;-70
2024/01/18 11:37:14;;;;;;;59.00;26.75;;;;;;;;;;4994153;28;20022;-70
2024/01/18 11:39:52;;;;;;;55.08;26.58;;;;;;;;;;4999615;28;20532;-70
2024/01/18 11:42:22;;;;;;;60.22;25.33;;;;;;;;;;5005691;28;20030;-70
2024/01/18 11:44:53;;;;;;;67.80;30.73;;;;;;;;;;5001387;28;20069;-70
2024/01/18 11:47:18;;;;;;;63.70;27.20;;;;;;;;;;5001553;28;20041;-70
2024/01/18 11:49:44;;;;;;;60.97;26.10;;;;;;;;;;5004108;28;20022;-70
2024/01/18 11:52:10;;;;;;;67.40;30.35;;;;;;;;;;5005626;28;20022;-69
2024/01/18 11:54:36;;;;;;;57.25;26.63;;;;;;;;;;5004108;28;20056;-69
2024/01/18 11:57:02;;;;;;;58.13;25.48;;;;;;;;;;4999909;28;20481;-69
2024/01/18 11:59:30;;;;;;;64.10;28.73;;;;;;;;;;5006891;28;20037;-69
2024/01/18 12:01:55;;;;;;;62.17;30.90;;;;;;;;;;5006111;28;20034;-69
2024/01/18 12:04:20;;;;;;;68.57;31.80;;;;;;;;;;5005871;28;20022;-69
2024/01/18 12:06:45;;;;;;;61.90;30.40;;;;;;;;;;5003816;28;20032;-69
2024/01/18 12:09:10;;;;;;;60.55;26.85;;;;;;;;;;5003091;28;20277;-69
2024/01/18 12:11:36;;;;;;;65.35;30.58;;;;;;;;;;5008204;28;20218;-69
2024/01/18 12:14:01;;;;;;;63.05;27.88;;;;;;;;;;5011224;28;20060;-69
2024/01/18 12:16:26;;;;;;;61.38;27.00;;;;;;;;;;5010785;28;20592;-69
2024/01/18 12:18:51;;;;;;;52.58;29.20;;;;;;;;;;5003865;28;20030;-69
2024/01/18 12:21:18;;;;;;;60.10;26.10;;;;;;;;;;5008537;28;20049;-69
2024/01/18 12:23:44;;;;;;;56.33;25.55;;;;;;;;;;5005105;28;20026;-69
2024/01/18 12:26:09;;;;;;;50.88;25.88;;;;;;;;;;4999015;28;20022;-69
2024/01/18 12:28:34;;;;;;;48.17;24.60;;;;;;;;;;5005064;28;20586;-69
2024/01/18 12:31:03;;;;;;;49.65;26.17;;;;;;;;;;5008897;28;20018;-69
2024/01/18 12:33:31;;;;;;;59.95;30.08;;;;;;;;;;5005410;28;20018;-69
2024/01/18 12:35:57;;;;;;;53.20;24.08;;;;;;;;;;5005586;28;20029;-69
2024/01/18 12:38:22;;;;;;;54.22;27.05;;;;;;;;;;5004194;28;20052;-69
2024/01/18 12:40:48;;;;;;;50.75;24.15;;;;;;;;;;5006010;28;20022;-69
2024/01/18 12:43:13;;;;;;;60.88;28.08;;;;;;;;;;5009446;28;20087;-69
2024/01/18 12:45:42;;;;;;;53.92;24.58;;;;;;;;;;5002863;28;20025;-69
2024/01/18 12:48:08;;;;;;;57.53;26.92;;;;;;;;;;4999136;28;20081;-69
2024/01/18 12:50:36;;;;;;;62.15;26.10;;;;;;;;;;5004867;28;20038;-69
2024/01/18 12:53:01;;;;;;;52.25;26.02;;;;;;;;;;5002890;28;20404;-69
2024/01/18 12:55:26;;;;;;;60.00;26.17;;;;;;;;;;5000419;28;20014;-69
2024/01/18 12:57:54;;;;;;;55.45;24.77;;;;;;;;;;5002130;28;20027;-69
2024/01/18 13:00:20;;;;;;;54.53;24.50;;;;;;;;;;4998668;28;20113;-69
2024/01/18 13:02:45;;;;;;;56.70;23.52;;;;;;;;;;5009240;28;20540;-69
2024/01/18 13:05:17;;;;;;;57.45;24.08;;;;;;;;;;5001365;28;20593;-69
2024/01/18 13:07:42;;;;;;;50.03;23.95;;;;;;;;;;5002578;28;20453;-69
2024/01/18 13:10:07;;;;;;;56.22;25.58;;;;;;;;;;5004433;28;20026;-69
2024/01/18 13:12:33;;;;;;;57.88;23.00;;;;;;;;;;5010089;28;20079;-69
2024/01/18 13:14:59;;;;;;;55.53;22.95;;;;;;;;;;5002199;28;20421;-69
2024/01/18 13:17:24;;;;;;;52.92;27.50;;;;;;;;;;5003974;28;20026;-69
2024/01/18 13:19:55;;;;;;;44.13;23.67;;;;;;;;;;5001638;28;20116;-69
2024/01/18 13:22:21;;;;;;;54.65;24.17;;;;;;;;;;5009027;28;20257;-69
2024/01/18 13:24:46;;;;;;;43.50;21.23;;;;;;;;;;5002258;28;20018;-69
2024/01/18 13:27:11;;;;;;;60.85;23.70;;;;;;;;;;4996776;28;20386;-69
2024/01/18 13:29:36;;;;;;;38.72;19.27;;;;;;;;;;4998976;28;20026;-69
2024/01/18 13:32:03;;;;;;;45.25;19.60;;;;;;;;;;5005312;28;20747;-69
2024/01/18 13:34:30;;;;;;;44.92;18.65;;;;;;;;;;5007613;28;20018;-69
2024/01/18 13:36:56;;;;;;;45.75;21.67;;;;;;;;;;5000019;28;20025;-69
2024/01/18 13:39:21;;;;;;;38.95;16.73;;;;;;;;;;4997183;28;20510;-69
2024/01/18 13:41:46;;;;;;;34.80;17.38;;;;;;;;;;5010433;28;20153;-69
2024/01/18 13:44:12;;;;;;;46.42;17.08;;;;;;;;;;4999997;28;20029;-69
2024/01/18 13:46:38;;;;;;;44.10;16.67;;;;;;;;;;5000743;28;20038;-69
2024/01/18 13:49:03;;;;;;;39.50;16.02;;;;;;;;;;5000221;28;20153;-69
2024/01/18 13:51:30;;;;;;;35.63;16.35;;;;;;;;;;5006243;28;20022;-69
2024/01/18 13:53:55;;;;;;;31.38;12.93;;;;;;;;;;5004241;28;20018;-69
2024/01/18 13:56:22;;;;;;;37.60;13.88;;;;;;;;;;4999302;28;20473;-69
2024/01/18 13:58:47;;;;;;;31.02;14.25;;;;;;;;;;5002406;28;20106;-69
2024/01/18 14:01:12;;;;;;;26.65;11.00;;;;;;;;;;5004178;28;20121;-69
2024/01/18 14:03:39;;;;;;;27.70;12.88;;;;;;;;;;5003811;28;20036;-69
2024/01/18 14:06:05;;;;;;;22.00;11.00;;;;;;;;;;4996430;28;20027;-68